Greenwood, Minnesota
Current Conditions -  °F | °C
As of 2:35 AM on Sunday 21 Dec 2014 (Local Time) from KFSE Reporting Station
Overcast Overcast  
Wind Chill: 14°   Ceiling: 800
Heat Index: 27°   Visibility: 7mi
Dew Point: 27°   Wind: 16mph
Humidity: 100%   Direction: 180°S
Pressure: 29.84"   Gusts: 20mph
Location:  47.7926°N, 95.3062°W
Report Text: KFSE 210835Z AUTO 18014G17KT 7SM OVC008 M03/M03 A2984 RMK AO2
Loading
Personal Weather Stations






























Interactive Weather Map New forecast layout! Learn more

10-Day Weather Forecast

Advertisements
Track Severe Weather on mobile